createdAt,value
2022-11-09T00:01:05.592Z,6.60
2022-11-09T00:03:33.072Z,5.40
2022-11-09T00:06:01.168Z,7.90
2022-11-09T00:08:29.066Z,7.50
2022-11-09T00:11:04.328Z,5.88
2022-11-09T00:13:35.141Z,7.13
2022-11-09T00:16:02.701Z,5.83
2022-11-09T00:18:30.186Z,8.68
2022-11-09T00:20:57.598Z,8.13
2022-11-09T00:23:24.959Z,6.97
2022-11-09T00:25:52.284Z,8.13
2022-11-09T00:28:19.671Z,7.13
2022-11-09T00:30:47.929Z,9.07
2022-11-09T00:33:16.780Z,8.30
2022-11-09T00:35:44.258Z,8.55
2022-11-09T00:38:11.617Z,6.82
2022-11-09T00:40:39.043Z,7.38
2022-11-09T00:43:06.428Z,6.47
2022-11-09T00:45:33.770Z,8.50
2022-11-09T00:48:01.612Z,6.15
2022-11-09T00:50:29.261Z,6.05
2022-11-09T00:52:56.578Z,7.97
2022-11-09T00:55:24.423Z,6.75
2022-11-09T00:57:53.256Z,9.32
2022-11-09T01:00:24.231Z,6.15
2022-11-09T01:02:53.576Z,8.50
2022-11-09T01:05:20.910Z,6.57
2022-11-09T01:07:50.379Z,8.18
2022-11-09T01:10:17.762Z,9.45
2022-11-09T01:12:47.151Z,7.47
2022-11-09T01:15:15.582Z,8.48
2022-11-09T01:17:42.989Z,7.95
2022-11-09T01:20:11.360Z,7.72
2022-11-09T01:22:38.768Z,6.55
2022-11-09T01:25:07.477Z,8.77
2022-11-09T01:27:35.499Z,5.75
2022-11-09T01:30:07.044Z,7.78
2022-11-09T01:32:34.440Z,6.78
2022-11-09T01:35:01.789Z,6.00
2022-11-09T01:37:31.248Z,6.65
2022-11-09T01:39:58.624Z,7.45
2022-11-09T01:42:26.371Z,8.48
2022-11-09T01:45:21.641Z,9.30
2022-11-09T01:47:57.664Z,7.22
2022-11-09T01:50:38.340Z,7.25
2022-11-09T01:53:13.124Z,8.55
2022-11-09T01:55:42.005Z,7.07
2022-11-09T01:58:17.082Z,7.05
2022-11-09T02:00:49.218Z,7.95
2022-11-09T02:03:27.885Z,6.95
2022-11-09T02:05:56.382Z,7.57
2022-11-09T02:08:26.630Z,8.60
2022-11-09T02:11:12.063Z,7.70
2022-11-09T02:13:46.855Z,7.10
2022-11-09T02:16:15.301Z,10.00
2022-11-09T02:18:55.816Z,7.25
2022-11-09T02:21:28.849Z,7.60
2022-11-09T02:23:56.514Z,8.88
2022-11-09T02:26:33.680Z,7.40
2022-11-09T02:29:08.338Z,9.07
2022-11-09T02:31:46.102Z,7.43
2022-11-09T02:34:19.130Z,6.50
2022-11-09T02:36:47.806Z,6.70
2022-11-09T02:39:26.396Z,7.03
2022-11-09T02:42:10.266Z,7.65
2022-11-09T02:44:47.832Z,6.50
2022-11-09T02:47:15.755Z,8.57
2022-11-09T02:49:43.621Z,5.93
2022-11-09T02:52:11.014Z,9.40
2022-11-09T02:54:39.174Z,9.18
2022-11-09T02:57:06.747Z,9.57
2022-11-09T02:59:34.256Z,9.82
2022-11-09T03:02:03.266Z,7.47
2022-11-09T03:04:31.864Z,7.80
2022-11-09T03:07:00.388Z,8.88
2022-11-09T03:09:28.228Z,8.13
2022-11-09T03:11:57.658Z,8.57
2022-11-09T03:14:25.169Z,10.02
2022-11-09T03:16:56.388Z,7.68
2022-11-09T03:19:23.754Z,14.02
2022-11-09T03:21:52.885Z,6.35
2022-11-09T03:24:23.787Z,7.77
2022-11-09T03:26:54.864Z,7.95
2022-11-09T03:29:22.292Z,9.27
2022-11-09T03:31:49.717Z,6.47
2022-11-09T03:34:17.124Z,6.97
2022-11-09T03:36:44.646Z,9.93
2022-11-09T03:39:12.716Z,8.55
2022-11-09T03:41:40.087Z,10.90
2022-11-09T03:44:09.300Z,12.20
2022-11-09T03:46:36.701Z,10.52
2022-11-09T03:49:04.405Z,12.50
2022-11-09T03:51:31.785Z,9.32
2022-11-09T03:53:59.139Z,9.98
2022-11-09T03:56:26.572Z,10.57
2022-11-09T03:58:54.072Z,12.15
2022-11-09T04:01:21.457Z,8.13
2022-11-09T04:03:48.816Z,9.32
2022-11-09T04:06:16.416Z,12.90
2022-11-09T04:08:48.370Z,9.82
2022-11-09T04:11:19.838Z,12.60
2022-11-09T04:13:47.460Z,9.50
2022-11-09T04:16:14.807Z,8.75
2022-11-09T04:18:42.200Z,10.15
2022-11-09T04:21:09.589Z,11.05
2022-11-09T04:23:36.921Z,13.25
2022-11-09T04:26:04.555Z,10.23
2022-11-09T04:28:31.968Z,11.20
2022-11-09T04:31:02.886Z,8.70
2022-11-09T04:33:30.234Z,10.07
2022-11-09T04:36:05.485Z,10.15
2022-11-09T04:38:33.235Z,9.98
2022-11-09T04:41:04.369Z,11.70
2022-11-09T04:43:31.819Z,9.52
2022-11-09T04:46:01.445Z,9.50
2022-11-09T04:48:30.912Z,10.77
2022-11-09T04:51:12.678Z,10.27
2022-11-09T04:56:08.345Z,9.45
2022-11-09T04:58:35.773Z,9.40
2022-11-09T05:01:13.070Z,12.38
2022-11-09T05:03:40.922Z,13.30
2022-11-09T05:06:27.656Z,8.75
2022-11-09T05:08:56.083Z,12.13
2022-11-09T05:11:23.981Z,14.73
2022-11-09T05:13:52.054Z,8.85
2022-11-09T05:16:20.940Z,11.80
2022-11-09T05:18:48.390Z,11.27
2022-11-09T05:21:17.035Z,13.15
2022-11-09T05:24:00.702Z,13.85
2022-11-09T05:26:39.855Z,9.10
2022-11-09T05:29:10.997Z,10.25
2022-11-09T05:31:39.768Z,9.80
2022-11-09T05:34:12.320Z,15.35
2022-11-09T05:36:39.679Z,11.82
2022-11-09T05:39:07.091Z,12.00
2022-11-09T05:41:34.435Z,11.70
2022-11-09T05:44:01.787Z,12.50
2022-11-09T05:46:31.156Z,12.43
2022-11-09T05:48:58.516Z,10.10
2022-11-09T05:51:25.989Z,11.80
2022-11-09T05:53:53.344Z,12.43
2022-11-09T05:56:20.716Z,13.05
2022-11-09T05:58:48.044Z,11.43
2022-11-09T06:01:21.259Z,7.93
2022-11-09T06:03:48.682Z,10.77
2022-11-09T06:06:17.484Z,14.82
2022-11-09T06:08:44.872Z,9.90
2022-11-09T06:11:21.563Z,10.70
2022-11-09T06:13:52.014Z,8.65
2022-11-09T06:16:19.669Z,8.73
2022-11-09T06:18:47.025Z,10.18
2022-11-09T06:21:14.453Z,12.07
2022-11-09T06:23:42.099Z,13.07
2022-11-09T06:26:11.328Z,13.32
2022-11-09T06:28:40.518Z,12.98
2022-11-09T06:31:15.244Z,12.65
2022-11-09T06:33:43.116Z,15.30
2022-11-09T06:36:11.314Z,9.98
2022-11-09T06:38:39.689Z,8.27
2022-11-09T06:41:07.208Z,17.00
2022-11-09T06:43:34.603Z,8.98
2022-11-09T06:46:05.545Z,11.35
2022-11-09T06:48:33.192Z,8.90
2022-11-09T06:51:02.533Z,12.60
2022-11-09T06:53:31.395Z,13.07
2022-11-09T06:56:00.955Z,10.23
2022-11-09T06:58:29.177Z,13.00
2022-11-09T07:00:57.288Z,10.73
2022-11-09T07:03:25.567Z,10.93
2022-11-09T07:05:53.277Z,7.78
2022-11-09T07:08:20.875Z,10.50
2022-11-09T07:10:48.267Z,10.02
2022-11-09T07:13:15.653Z,10.60
2022-11-09T07:15:43.030Z,9.90
2022-11-09T07:18:12.715Z,13.77
2022-11-09T07:20:40.334Z,11.57
2022-11-09T07:23:07.735Z,10.68
2022-11-09T07:25:35.959Z,12.10
2022-11-09T07:28:08.894Z,13.05
2022-11-09T07:30:37.148Z,11.10
2022-11-09T07:33:18.169Z,11.27
2022-11-09T07:35:46.731Z,12.20
2022-11-09T07:38:21.925Z,9.00
2022-11-09T07:40:49.459Z,10.95
2022-11-09T07:43:17.625Z,9.98
2022-11-09T07:45:49.889Z,10.77
2022-11-09T07:48:43.653Z,12.23
2022-11-09T07:51:11.030Z,11.73
2022-11-09T07:53:39.048Z,8.98
2022-11-09T07:56:06.766Z,13.25
2022-11-09T07:58:35.912Z,11.35
2022-11-09T08:01:10.976Z,10.88
2022-11-09T08:03:38.418Z,10.75
2022-11-09T08:06:06.097Z,10.75
2022-11-09T08:08:33.577Z,11.32
2022-11-09T08:11:00.927Z,12.88
2022-11-09T08:13:28.294Z,16.75
2022-11-09T08:15:55.663Z,9.98
2022-11-09T08:18:23.984Z,9.13
2022-11-09T08:20:51.494Z,11.15
2022-11-09T08:23:20.912Z,12.60
2022-11-09T08:25:50.067Z,12.13
2022-11-09T08:28:18.723Z,11.70
2022-11-09T08:30:46.510Z,9.55
2022-11-09T08:33:14.131Z,9.88
2022-11-09T08:35:41.492Z,12.27
2022-11-09T08:38:09.525Z,9.30
2022-11-09T08:40:36.879Z,11.68
2022-11-09T08:43:08.860Z,9.32
2022-11-09T08:45:38.817Z,10.00
2022-11-09T08:48:08.423Z,10.93
2022-11-09T08:50:37.161Z,15.00
2022-11-09T08:53:05.743Z,9.30
2022-11-09T08:55:33.512Z,9.10
2022-11-09T08:58:02.756Z,13.35
2022-11-09T09:00:30.786Z,10.43
2022-11-09T09:02:58.316Z,10.70
2022-11-09T09:05:26.568Z,10.32
2022-11-09T09:07:53.943Z,8.27
2022-11-09T09:10:21.339Z,7.43
2022-11-09T09:12:48.703Z,9.23
2022-11-09T09:15:16.097Z,10.88
2022-11-09T09:17:43.648Z,9.85
2022-11-09T09:20:11.430Z,10.15
2022-11-09T09:22:39.839Z,14.65
2022-11-09T09:25:08.298Z,10.27
2022-11-09T09:27:36.071Z,11.30
2022-11-09T09:30:04.829Z,10.20
2022-11-09T09:32:32.188Z,11.43
2022-11-09T09:35:00.029Z,10.13
2022-11-09T09:37:27.388Z,9.32
2022-11-09T09:39:54.741Z,7.45
2022-11-09T09:42:31.168Z,10.25
2022-11-09T09:45:16.000Z,11.57
2022-11-09T09:48:14.018Z,10.95
2022-11-09T09:50:50.903Z,11.98
2022-11-09T09:53:31.306Z,11.02
2022-11-09T09:56:19.140Z,9.45
2022-11-09T09:58:57.774Z,9.68
2022-11-09T10:01:37.730Z,10.68
2022-11-09T10:04:37.564Z,11.95
2022-11-09T10:07:21.576Z,12.98
2022-11-09T10:10:17.214Z,13.38
2022-11-09T10:13:34.243Z,11.02
2022-11-09T10:16:21.255Z,11.63
2022-11-09T10:19:13.087Z,10.00
2022-11-09T10:22:07.580Z,9.73
2022-11-09T10:25:37.428Z,13.57
2022-11-09T10:27:58.789Z,13.85
2022-11-09T10:30:29.234Z,13.60
2022-11-09T10:33:10.773Z,10.80
2022-11-09T10:35:46.229Z,9.93
2022-11-09T10:38:23.292Z,10.57
2022-11-09T10:41:46.131Z,15.75
2022-11-09T10:44:32.131Z,9.57
2022-11-09T10:47:19.449Z,11.63
2022-11-09T10:50:22.903Z,7.07
2022-11-09T10:53:26.159Z,11.48
2022-11-09T10:56:21.286Z,13.18
2022-11-09T10:59:48.442Z,9.93
2022-11-09T11:02:44.138Z,9.20
2022-11-09T11:05:31.880Z,10.45
2022-11-09T11:08:25.921Z,11.75
2022-11-09T11:11:34.882Z,10.38
2022-11-09T11:14:41.616Z,11.43
2022-11-09T11:17:36.428Z,8.40
2022-11-09T11:20:36.669Z,14.27
2022-11-09T11:23:25.939Z,12.35
2022-11-09T11:26:27.861Z,8.70
2022-11-09T11:30:00.522Z,7.45
2022-11-09T11:32:50.401Z,10.05
2022-11-09T11:36:05.694Z,8.38
2022-11-09T11:39:29.825Z,7.43
2022-11-09T11:42:51.441Z,12.15
2022-11-09T11:45:49.459Z,8.80
2022-11-09T11:49:11.323Z,12.10
2022-11-09T11:52:26.178Z,6.45
2022-11-09T11:55:46.571Z,10.50
2022-11-09T11:58:53.828Z,8.68
2022-11-09T12:02:24.692Z,7.78
2022-11-09T12:05:40.436Z,7.85
2022-11-09T12:09:04.817Z,10.32
2022-11-09T12:12:23.137Z,9.93
2022-11-09T12:15:46.277Z,10.35
2022-11-09T12:18:58.743Z,11.15
2022-11-09T12:22:11.559Z,10.05
2022-11-09T12:25:24.433Z,10.88
2022-11-09T12:29:07.483Z,10.00
2022-11-09T12:32:42.245Z,7.78
2022-11-09T12:35:50.070Z,8.57
2022-11-09T12:38:56.260Z,11.52
2022-11-09T12:41:44.433Z,8.60
2022-11-09T12:44:46.481Z,9.32
2022-11-09T12:47:41.525Z,6.88
2022-11-09T12:50:28.250Z,9.93
2022-11-09T12:53:16.684Z,7.88
2022-11-09T12:56:21.074Z,10.82
2022-11-09T12:59:30.401Z,8.65
2022-11-09T13:02:31.016Z,7.72
2022-11-09T13:05:37.561Z,7.88
2022-11-09T13:08:32.125Z,9.45
2022-11-09T13:11:20.117Z,6.25
2022-11-09T13:14:28.912Z,9.70
2022-11-09T13:17:38.042Z,9.07
2022-11-09T13:20:58.049Z,6.95
2022-11-09T13:24:03.712Z,7.35
2022-11-09T13:26:55.838Z,11.27
2022-11-09T13:29:41.696Z,7.18
2022-11-09T13:32:33.024Z,7.78
2022-11-09T13:35:40.143Z,7.18
2022-11-09T13:38:31.893Z,9.95
2022-11-09T13:44:25.377Z,7.15
2022-11-09T13:47:32.300Z,7.15
2022-11-09T13:50:22.046Z,7.47
2022-11-09T13:54:12.959Z,7.10
2022-11-09T13:57:05.732Z,8.38
2022-11-09T13:59:52.539Z,7.40
2022-11-09T14:02:38.457Z,8.45
2022-11-09T14:05:33.908Z,8.50
2022-11-09T14:08:39.973Z,7.80
2022-11-09T14:11:59.122Z,7.35
2022-11-09T14:15:19.518Z,7.65
2022-11-09T14:18:34.804Z,7.43
2022-11-09T14:21:47.621Z,9.27
2022-11-09T14:24:37.924Z,13.93
2022-11-09T14:27:23.665Z,10.75
2022-11-09T14:30:23.708Z,8.45
2022-11-09T14:33:27.442Z,8.68
2022-11-09T14:36:13.859Z,9.60
2022-11-09T14:39:06.623Z,8.77
2022-11-09T14:41:52.788Z,9.02
2022-11-09T14:44:44.301Z,8.20
2022-11-09T14:47:37.572Z,7.40
2022-11-09T14:50:30.523Z,8.00
2022-11-09T14:53:29.511Z,7.30
2022-11-09T14:56:20.468Z,7.13
2022-11-09T14:59:12.639Z,8.48
2022-11-09T15:02:07.894Z,12.02
2022-11-09T15:05:04.434Z,9.15
2022-11-09T15:07:50.540Z,8.27
2022-11-09T15:10:39.714Z,6.50
2022-11-09T15:13:41.520Z,7.57
2022-11-09T15:16:31.432Z,7.57
2022-11-09T15:19:52.704Z,8.10
2022-11-09T15:22:47.349Z,7.45
2022-11-09T15:25:35.269Z,8.05
2022-11-09T15:28:27.555Z,7.32
2022-11-09T15:31:16.478Z,21.25
2022-11-09T15:34:30.356Z,8.52
2022-11-09T15:37:37.523Z,7.57
2022-11-09T15:40:25.172Z,6.75
2022-11-09T15:43:11.233Z,8.55
2022-11-09T15:46:00.451Z,8.48
2022-11-09T15:48:47.940Z,9.10
2022-11-09T15:51:33.630Z,7.43
2022-11-09T15:54:21.960Z,7.07
2022-11-09T15:57:16.143Z,9.55
2022-11-09T16:00:07.806Z,9.52
2022-11-09T16:02:57.611Z,9.02
2022-11-09T16:05:46.392Z,9.48
2022-11-09T16:08:32.531Z,8.32
2022-11-09T16:11:18.430Z,8.15
2022-11-09T16:14:04.712Z,9.85
2022-11-09T16:16:50.923Z,7.25
2022-11-09T16:19:37.031Z,9.23
2022-11-09T16:22:22.907Z,11.27
2022-11-09T16:25:09.428Z,9.68
2022-11-09T16:27:55.214Z,9.45
2022-11-09T16:30:46.419Z,7.45
2022-11-09T16:33:33.733Z,11.65
2022-11-09T16:36:23.503Z,11.27
2022-11-09T16:39:16.831Z,10.82
2022-11-09T16:42:07.864Z,9.23
2022-11-09T16:45:03.979Z,8.32
2022-11-09T16:47:56.720Z,9.02
2022-11-09T16:50:43.843Z,12.52
2022-11-09T16:53:30.216Z,10.15
2022-11-09T16:56:17.078Z,9.32
2022-11-09T16:59:03.546Z,11.07
2022-11-09T17:01:51.616Z,12.45
2022-11-09T17:04:37.907Z,10.80
2022-11-09T17:07:23.902Z,10.15
2022-11-09T17:10:11.668Z,9.15
2022-11-09T17:12:57.500Z,10.30
2022-11-09T17:15:46.610Z,10.18
2022-11-09T17:18:33.146Z,13.18
2022-11-09T17:21:19.075Z,10.85
2022-11-09T17:24:06.358Z,9.23
2022-11-09T17:26:52.434Z,8.77
2022-11-09T17:29:40.110Z,11.02
2022-11-09T17:32:28.129Z,11.70
2022-11-09T17:35:14.271Z,10.40
2022-11-09T17:38:00.326Z,10.48
2022-11-09T17:40:46.540Z,9.18
2022-11-09T17:43:34.111Z,11.35
2022-11-09T17:46:21.847Z,9.40
2022-11-09T17:49:10.222Z,8.55
2022-11-09T17:51:57.692Z,12.00
2022-11-09T17:54:43.385Z,11.65
2022-11-09T17:57:29.227Z,11.05
2022-11-09T18:00:15.663Z,8.63
2022-11-09T18:03:01.741Z,8.60
2022-11-09T18:05:47.717Z,10.30
2022-11-09T18:08:33.780Z,9.80
2022-11-09T18:11:19.680Z,7.78
2022-11-09T18:14:05.617Z,9.52
2022-11-09T18:16:51.455Z,8.57
2022-11-09T18:19:37.253Z,9.30
2022-11-09T18:22:23.075Z,8.60
2022-11-09T18:25:09.722Z,8.18
2022-11-09T18:27:55.642Z,9.98
2022-11-09T18:30:41.686Z,9.70
2022-11-09T18:33:28.238Z,10.63
2022-11-09T18:36:16.945Z,6.45
2022-11-09T18:39:03.374Z,10.95
2022-11-09T18:41:49.200Z,11.57
2022-11-09T18:44:35.435Z,12.38
2022-11-09T18:47:23.574Z,7.78
2022-11-09T18:50:09.650Z,9.98
2022-11-09T18:52:55.637Z,9.10
2022-11-09T18:55:41.619Z,9.70
2022-11-09T18:58:28.396Z,14.43
2022-11-09T19:01:15.947Z,11.43
2022-11-09T19:04:02.170Z,11.00
2022-11-09T19:06:48.130Z,9.32
2022-11-09T19:09:38.781Z,16.60
2022-11-09T19:12:25.172Z,10.52
2022-11-09T19:15:10.956Z,10.02
2022-11-09T19:17:57.041Z,10.35
2022-11-09T19:20:43.313Z,9.05
2022-11-09T19:23:34.185Z,10.85
2022-11-09T19:26:22.146Z,11.48
2022-11-09T19:29:10.200Z,11.02
2022-11-09T19:31:56.324Z,13.10
2022-11-09T19:34:42.757Z,12.07
2022-11-09T19:37:29.305Z,16.27
2022-11-09T19:40:16.355Z,13.55
2022-11-09T19:43:02.312Z,14.00
2022-11-09T19:45:48.231Z,11.75
2022-11-09T19:48:35.008Z,10.48
2022-11-09T19:51:21.018Z,16.70
2022-11-09T19:54:07.792Z,12.00
2022-11-09T19:56:54.140Z,9.13
2022-11-09T19:59:40.161Z,10.80
2022-11-09T20:02:26.136Z,12.23
2022-11-09T20:05:11.908Z,13.13
2022-11-09T20:07:58.032Z,11.25
2022-11-09T20:10:43.991Z,12.63
2022-11-09T20:13:29.759Z,12.35
2022-11-09T20:16:15.680Z,14.40
2022-11-09T20:19:04.340Z,14.43
2022-11-09T20:21:50.272Z,12.10
2022-11-09T20:24:36.161Z,12.93
2022-11-09T20:27:21.928Z,11.45
2022-11-09T20:30:08.682Z,15.93
2022-11-09T20:32:54.772Z,11.55
2022-11-09T20:35:44.312Z,13.10
2022-11-09T20:38:33.092Z,11.50
2022-11-09T20:41:24.237Z,16.27
2022-11-09T20:44:11.613Z,14.90
2022-11-09T20:46:57.491Z,14.60
2022-11-09T20:49:43.282Z,14.48
2022-11-09T20:52:29.208Z,12.18
2022-11-09T20:55:15.361Z,16.02
2022-11-09T20:58:01.114Z,14.45
2022-11-09T21:00:46.942Z,10.63
2022-11-09T21:03:34.437Z,11.27
2022-11-09T21:06:21.599Z,12.30
2022-11-09T21:09:07.577Z,12.07
2022-11-09T21:12:12.039Z,13.40
2022-11-09T21:14:57.937Z,13.32
2022-11-09T21:17:43.819Z,13.20
2022-11-09T21:20:29.855Z,12.88
2022-11-09T21:23:15.625Z,15.57
2022-11-09T21:26:20.272Z,10.80
2022-11-09T21:29:30.221Z,15.57
2022-11-09T21:32:17.695Z,15.75
2022-11-09T21:35:05.021Z,12.75
2022-11-09T21:37:50.937Z,14.75
2022-11-09T21:40:36.955Z,16.33
2022-11-09T21:43:23.062Z,15.40
2022-11-09T21:46:09.183Z,12.43
2022-11-09T21:48:56.152Z,12.55
2022-11-09T21:51:41.937Z,14.05
2022-11-09T21:54:28.374Z,18.02
2022-11-09T21:57:14.194Z,14.98
2022-11-09T22:00:00.090Z,14.32
2022-11-09T22:02:46.128Z,14.85
2022-11-09T22:05:32.055Z,13.02
2022-11-09T22:08:18.028Z,14.18
2022-11-09T22:11:07.965Z,17.25
2022-11-09T22:14:13.129Z,17.02
2022-11-09T22:16:59.676Z,16.52
2022-11-09T22:20:04.497Z,14.05
2022-11-09T22:22:50.766Z,11.73
2022-11-09T22:25:36.690Z,16.67
2022-11-09T22:28:22.428Z,19.80
2022-11-09T22:31:10.336Z,15.35
2022-11-09T22:33:56.051Z,13.50
2022-11-09T22:36:41.788Z,12.70
2022-11-09T22:39:27.724Z,13.43
2022-11-09T22:42:13.614Z,15.45
2022-11-09T22:44:59.700Z,16.92
2022-11-09T22:47:45.705Z,15.77
2022-11-09T22:50:31.884Z,13.70
2022-11-09T22:53:17.933Z,17.02
2022-11-09T22:56:05.245Z,16.05
2022-11-09T22:58:52.893Z,14.93
2022-11-09T23:01:39.058Z,17.23
2022-11-09T23:04:25.275Z,21.17
2022-11-09T23:07:11.325Z,19.45
2022-11-09T23:09:57.022Z,16.23
2022-11-09T23:12:42.725Z,18.08
2022-11-09T23:15:29.260Z,13.43
2022-11-09T23:18:33.721Z,13.73
2022-11-09T23:21:35.564Z,14.73
2022-11-09T23:24:40.201Z,15.25
2022-11-09T23:27:26.356Z,15.15
2022-11-09T23:30:13.177Z,13.95
2022-11-09T23:33:02.807Z,15.93
2022-11-09T23:35:48.745Z,12.43
2022-11-09T23:38:37.705Z,19.08
2022-11-09T23:41:23.534Z,18.23
2022-11-09T23:44:09.322Z,18.77
2022-11-09T23:46:55.300Z,17.25
2022-11-09T23:49:41.113Z,16.38
2022-11-09T23:52:27.340Z,17.38
2022-11-09T23:55:13.681Z,16.45
2022-11-09T23:58:03.746Z,12.68
